Airfield :
LOGIN :

Register | Disclaimer

   EN    FR    IT 

 










Legend :    VFR   Marginal VFR   IFR   Intensive IFR   Very Intensive IFR
Visi :
Ceiling :
>= 8 km
>= 3000ft
5 to 8 km
1000 to 3000 ft
1500m to 5 km
500 to 1000 ft
800 to 1500m
200 to 500 ft
< 800m
< 200 ft
Symbols :   Thunderstorms  Fog  Heavy snow  Heavy precipitations  Wind > 20 kt
SIGMETs :     Misc.  Thunderstorms  Icing  Turbulence  Mountain Waves  Volcanic Ashes







- Airport Elevation : 72 ft
- IATA code : UDE


EHVK - Volkel Airbase

CURRENT METAR :
  • 241125Z AUTO 09006KT 060V140 9999 NCD 28/11 Q1020 BLU

EXPIRED METARs :
  • 241055Z AUTO 10006KT 080V150 9999 NCD 28/11 Q1020 BLU
  • 241025Z AUTO 11005KT 050V170 9999 NCD 27/13 Q1021 BLU
  • 240955Z AUTO 11004KT 080V160 9999 NCD 25/13 Q1021 BLU
  • 240925Z AUTO 09004KT 050V150 9999 NCD 25/13 Q1021 BLU
  • 240855Z AUTO 11005KT 050V180 9999 NCD 23/13 Q1021 BLU

TAF TAF EHVK
Valid from the 24 at 09:00 until the 24 at 21:00 UTC


240807Z 2409/2421 10004KT CAVOK
BECMG 2418/2421 05003KT
No reported NOTAMs for that airfield.



MET'MAP, your aeronautical weather chart ! - Copyright ORBIFLY December 2007 - Disclaimer

ORBIFLY MET'MAP TEAM :

Programming & Development : Alexandra Zaïnal
Concept & Development : Baudouin d'Aumeries
Co-Development & Prog : Marc-Olivier Méhu
Technical & hardware support : Manuel Goepfert

Contact : metmap@orbifly.com




SOURCES & CREDITS :

   NOAA